createdAt,value
2023-02-24T00:02:21.073Z,1.60
2023-02-24T00:04:51.767Z,2.23
2023-02-24T00:07:29.257Z,1.60
2023-02-24T00:09:58.008Z,1.27
2023-02-24T00:12:26.081Z,1.50
2023-02-24T00:14:54.136Z,1.40
2023-02-24T00:17:30.221Z,1.60
2023-02-24T00:19:58.402Z,1.50
2023-02-24T00:22:26.501Z,1.50
2023-02-24T00:24:55.418Z,1.43
2023-02-24T00:27:24.465Z,1.27
2023-02-24T00:29:52.769Z,1.67
2023-02-24T00:32:21.013Z,1.43
2023-02-24T00:34:53.159Z,1.07
2023-02-24T00:37:23.967Z,1.47
2023-02-24T00:39:52.149Z,1.40
2023-02-24T00:42:20.433Z,1.17
2023-02-24T00:44:49.459Z,1.00
2023-02-24T00:47:18.743Z,1.33
2023-02-24T00:49:46.850Z,1.37
2023-02-24T00:52:20.697Z,1.17
2023-02-24T00:54:50.662Z,1.10
2023-02-24T00:57:20.835Z,1.60
2023-02-24T00:59:51.534Z,1.40
2023-02-24T01:02:20.316Z,1.53
2023-02-24T01:04:49.872Z,1.50
2023-02-24T01:07:19.284Z,1.47
2023-02-24T01:09:47.216Z,1.67
2023-02-24T01:12:32.606Z,2.00
2023-02-24T01:15:02.940Z,1.23
2023-02-24T01:17:30.876Z,1.33
2023-02-24T01:20:00.819Z,1.43
2023-02-24T01:22:30.255Z,1.30
2023-02-24T01:24:58.668Z,1.43
2023-02-24T01:27:35.402Z,1.50
2023-02-24T01:30:08.815Z,1.20
2023-02-24T01:32:42.937Z,1.60
2023-02-24T01:35:14.744Z,1.43
2023-02-24T01:37:45.447Z,1.77
2023-02-24T01:40:22.010Z,1.53
2023-02-24T01:42:52.172Z,1.30
2023-02-24T01:45:30.512Z,1.53
2023-02-24T01:48:02.699Z,1.10
2023-02-24T01:50:36.131Z,1.30
2023-02-24T01:53:08.285Z,1.37
2023-02-24T01:55:42.800Z,1.50
2023-02-24T01:58:32.889Z,1.73
2023-02-24T02:01:06.522Z,1.40
2023-02-24T02:03:36.380Z,1.60
2023-02-24T02:06:08.772Z,1.63
2023-02-24T02:08:41.102Z,2.00
2023-02-24T02:11:13.028Z,1.40
2023-02-24T02:13:44.443Z,1.70
2023-02-24T02:16:42.465Z,1.40
2023-02-24T02:19:52.310Z,1.47
2023-02-24T02:22:38.989Z,1.17
2023-02-24T02:25:17.774Z,1.23
2023-02-24T02:28:08.396Z,1.40
2023-02-24T02:31:07.200Z,1.20
2023-02-24T02:34:09.290Z,1.67
2023-02-24T02:36:49.496Z,1.40
2023-02-24T02:39:28.221Z,1.43
2023-02-24T02:42:05.055Z,1.60
2023-02-24T02:44:39.641Z,1.83
2023-02-24T02:47:14.163Z,1.60
2023-02-24T02:49:46.563Z,2.00
2023-02-24T02:52:20.616Z,1.60
2023-02-24T02:54:54.467Z,2.17
2023-02-24T02:57:25.964Z,2.00
2023-02-24T02:59:57.774Z,1.93
2023-02-24T03:02:38.226Z,2.00
2023-02-24T03:05:11.168Z,1.97
2023-02-24T03:07:45.312Z,1.67
2023-02-24T03:10:21.105Z,1.33
2023-02-24T03:12:55.236Z,1.93
2023-02-24T03:15:26.003Z,1.50
2023-02-24T03:17:57.136Z,1.70
2023-02-24T03:20:32.798Z,1.53
2023-02-24T03:23:04.236Z,2.00
2023-02-24T03:25:39.456Z,1.67
2023-02-24T03:28:16.206Z,1.40
2023-02-24T03:30:46.566Z,1.80
2023-02-24T03:33:21.037Z,1.23
2023-02-24T03:35:51.729Z,1.67
2023-02-24T03:38:20.362Z,1.53
2023-02-24T03:40:48.389Z,1.53
2023-02-24T03:43:22.182Z,1.70
2023-02-24T03:45:51.086Z,1.00
2023-02-24T03:48:20.096Z,1.43
2023-02-24T03:50:49.487Z,1.33
2023-02-24T03:53:31.564Z,1.07
2023-02-24T03:56:11.169Z,1.37
2023-02-24T03:58:53.450Z,1.50
2023-02-24T04:01:30.987Z,3.00
2023-02-24T04:04:04.451Z,1.47
2023-02-24T04:06:36.840Z,2.07
2023-02-24T04:09:15.394Z,1.50
2023-02-24T04:11:48.337Z,2.07
2023-02-24T04:14:24.882Z,1.37
2023-02-24T04:17:01.105Z,1.10
2023-02-24T04:19:32.219Z,1.40
2023-02-24T04:22:01.327Z,1.43
2023-02-24T04:24:33.683Z,1.50
2023-02-24T04:27:06.335Z,1.60
2023-02-24T04:29:40.309Z,0.93
2023-02-24T04:32:12.212Z,0.63
2023-02-24T04:34:40.543Z,0.70
2023-02-24T04:37:08.646Z,0.87
2023-02-24T04:39:38.885Z,1.37
2023-02-24T04:42:07.776Z,1.00
2023-02-24T04:44:36.050Z,1.17
2023-02-24T04:47:04.772Z,1.17
2023-02-24T04:49:33.938Z,1.20
2023-02-24T04:52:01.821Z,1.53
2023-02-24T04:54:29.784Z,1.37
2023-02-24T04:56:59.495Z,1.30
2023-02-24T04:59:29.093Z,1.37
2023-02-24T05:02:01.387Z,0.97
2023-02-24T05:04:31.847Z,1.07
2023-02-24T05:07:00.604Z,1.10
2023-02-24T05:09:30.240Z,1.60
2023-02-24T05:12:00.250Z,0.90
2023-02-24T05:14:28.483Z,1.00
2023-02-24T05:17:00.249Z,1.20
2023-02-24T05:19:45.791Z,1.00
2023-02-24T05:22:14.403Z,1.27
2023-02-24T05:24:42.418Z,1.17
2023-02-24T05:27:11.683Z,1.00
2023-02-24T05:29:40.479Z,0.90
2023-02-24T05:32:08.754Z,1.10
2023-02-24T05:34:38.966Z,0.93
2023-02-24T05:37:10.539Z,1.17
2023-02-24T05:39:39.296Z,1.10
2023-02-24T05:42:07.501Z,1.00
2023-02-24T05:44:37.081Z,1.47
2023-02-24T05:47:05.752Z,1.00
2023-02-24T05:49:35.917Z,1.13
2023-02-24T05:52:08.849Z,1.20
2023-02-24T05:54:40.837Z,1.20
2023-02-24T05:57:11.940Z,1.47
2023-02-24T05:59:42.273Z,1.20
2023-02-24T06:02:12.352Z,1.83
2023-02-24T06:04:50.964Z,1.30
2023-02-24T06:07:21.020Z,1.10
2023-02-24T06:09:50.666Z,1.47
2023-02-24T06:12:20.658Z,1.13
2023-02-24T06:14:49.927Z,1.50
2023-02-24T06:17:19.713Z,1.67
2023-02-24T06:19:50.717Z,1.13
2023-02-24T06:22:21.138Z,1.40
2023-02-24T06:24:50.388Z,1.50
2023-02-24T06:27:21.597Z,1.40
2023-02-24T06:29:52.088Z,1.70
2023-02-24T06:32:21.190Z,1.70
2023-02-24T06:34:49.132Z,1.77
2023-02-24T06:40:09.946Z,1.90
2023-02-24T06:42:39.183Z,2.20
2023-02-24T06:45:10.843Z,1.70
2023-02-24T06:47:38.779Z,2.03
2023-02-24T06:50:07.873Z,1.93
2023-02-24T06:52:36.396Z,2.00
2023-02-24T06:55:05.426Z,2.33
2023-02-24T06:57:34.419Z,1.70
2023-02-24T07:00:16.601Z,2.10
2023-02-24T07:02:45.869Z,2.73
2023-02-24T07:05:14.771Z,2.20
2023-02-24T07:07:45.849Z,2.23
2023-02-24T07:10:14.430Z,1.93
2023-02-24T07:12:42.360Z,2.07
2023-02-24T07:15:13.681Z,2.23
2023-02-24T07:17:42.540Z,2.13
2023-02-24T07:20:25.156Z,2.17
2023-02-24T07:22:53.197Z,1.97
2023-02-24T07:25:33.204Z,2.30
2023-02-24T07:28:02.121Z,2.10
2023-02-24T07:30:31.104Z,2.20
2023-02-24T07:32:59.121Z,2.17
2023-02-24T07:35:28.526Z,2.30
2023-02-24T07:38:01.944Z,1.93
2023-02-24T07:40:29.982Z,1.80
2023-02-24T07:42:57.903Z,1.80
2023-02-24T07:45:26.030Z,1.73
2023-02-24T07:47:53.962Z,2.17
2023-02-24T07:50:21.825Z,1.90
2023-02-24T07:52:51.679Z,1.97
2023-02-24T07:55:19.788Z,2.30
2023-02-24T07:57:48.942Z,1.63
2023-02-24T08:00:28.365Z,1.80
2023-02-24T08:03:01.416Z,2.33
2023-02-24T08:05:31.068Z,2.00
2023-02-24T08:08:00.306Z,2.20
2023-02-24T08:10:28.249Z,2.00
2023-02-24T08:13:02.957Z,2.30
2023-02-24T08:15:34.013Z,2.07
2023-02-24T08:18:02.561Z,2.10
2023-02-24T08:20:36.271Z,1.97
2023-02-24T08:23:08.794Z,3.73
2023-02-24T08:25:36.725Z,2.20
2023-02-24T08:28:11.450Z,2.10
2023-02-24T08:30:45.307Z,1.90
2023-02-24T08:33:18.975Z,2.00
2023-02-24T08:35:52.158Z,2.40
2023-02-24T08:38:26.391Z,1.90
2023-02-24T08:40:58.699Z,2.20
2023-02-24T08:43:34.318Z,2.13
2023-02-24T08:46:06.528Z,1.90
2023-02-24T08:48:42.264Z,2.20
2023-02-24T08:51:17.664Z,2.07
2023-02-24T08:53:47.631Z,2.80
2023-02-24T08:56:23.989Z,2.63
2023-02-24T08:58:56.947Z,1.57
2023-02-24T09:01:30.902Z,2.10
2023-02-24T09:04:00.372Z,2.10
2023-02-24T09:06:38.274Z,2.40
2023-02-24T09:09:21.373Z,2.10
2023-02-24T09:11:56.010Z,2.63
2023-02-24T09:14:28.529Z,2.57
2023-02-24T09:17:05.858Z,2.57
2023-02-24T09:19:55.302Z,3.33
2023-02-24T09:22:32.407Z,2.73
2023-02-24T09:25:27.069Z,2.43
2023-02-24T09:27:57.245Z,2.33
2023-02-24T09:30:37.390Z,3.23
2023-02-24T09:33:18.786Z,1.93
2023-02-24T09:35:53.016Z,2.03
2023-02-24T09:38:43.345Z,3.10
2023-02-24T09:41:32.246Z,2.20
2023-02-24T09:44:10.664Z,2.70
2023-02-24T09:46:54.116Z,2.40
2023-02-24T09:49:25.468Z,2.50
2023-02-24T09:52:00.488Z,1.70
2023-02-24T09:54:35.328Z,2.43
2023-02-24T09:57:17.397Z,2.10
2023-02-24T10:00:02.026Z,2.10
2023-02-24T10:02:44.376Z,1.90
2023-02-24T10:05:27.388Z,2.30
2023-02-24T10:07:57.179Z,2.27
2023-02-24T10:10:29.187Z,2.30
2023-02-24T10:13:09.647Z,2.50
2023-02-24T10:16:05.893Z,2.37
2023-02-24T10:18:40.734Z,2.60
2023-02-24T10:21:30.489Z,2.47
2023-02-24T10:24:08.750Z,2.93
2023-02-24T10:27:07.420Z,2.37
2023-02-24T10:30:04.859Z,2.30
2023-02-24T10:32:41.258Z,2.60
2023-02-24T10:35:16.563Z,2.17
2023-02-24T10:37:45.193Z,2.50
2023-02-24T10:40:24.830Z,2.53
2023-02-24T10:43:04.384Z,3.07
2023-02-24T10:45:45.301Z,3.13
2023-02-24T10:48:40.215Z,2.97
2023-02-24T10:51:20.007Z,3.27
2023-02-24T10:54:10.161Z,3.70
2023-02-24T10:56:44.682Z,3.77
2023-02-24T10:59:32.839Z,3.50
2023-02-24T11:02:24.695Z,3.57
2023-02-24T11:05:04.532Z,3.83
2023-02-24T11:07:48.066Z,4.07
2023-02-24T11:10:26.767Z,4.30
2023-02-24T11:13:14.749Z,3.70
2023-02-24T11:16:03.914Z,4.20
2023-02-24T11:18:33.866Z,3.87
2023-02-24T11:21:07.434Z,3.70
2023-02-24T11:23:38.802Z,4.00
2023-02-24T11:26:17.076Z,3.43
2023-02-24T11:28:59.908Z,3.50
2023-02-24T11:31:40.801Z,2.90
2023-02-24T11:34:17.889Z,3.40
2023-02-24T11:36:54.500Z,3.10
2023-02-24T11:39:43.170Z,3.20
2023-02-24T11:42:15.236Z,3.30
2023-02-24T11:44:51.730Z,2.53
2023-02-24T11:47:23.622Z,3.07
2023-02-24T11:50:03.716Z,3.53
2023-02-24T11:52:36.781Z,3.90
2023-02-24T11:55:14.293Z,2.87
2023-02-24T11:57:46.696Z,3.00
2023-02-24T12:00:20.145Z,3.27
2023-02-24T12:02:54.160Z,3.77
2023-02-24T12:05:27.170Z,3.47
2023-02-24T12:07:57.748Z,3.53
2023-02-24T12:10:29.519Z,3.70
2023-02-24T12:13:08.491Z,3.77
2023-02-24T12:15:41.509Z,4.63
2023-02-24T12:18:19.929Z,3.60
2023-02-24T12:20:55.617Z,4.30
2023-02-24T12:23:26.946Z,3.83
2023-02-24T12:26:17.348Z,3.60
2023-02-24T12:28:58.504Z,3.30
2023-02-24T12:31:38.130Z,2.97
2023-02-24T12:34:11.911Z,3.40
2023-02-24T12:36:53.804Z,3.87
2023-02-24T12:39:25.839Z,3.30
2023-02-24T12:42:02.213Z,4.20
2023-02-24T12:44:41.592Z,4.00
2023-02-24T12:47:13.608Z,3.20
2023-02-24T12:50:07.261Z,3.23
2023-02-24T12:52:45.719Z,2.77
2023-02-24T12:55:21.598Z,2.93
2023-02-24T12:57:57.092Z,3.10
2023-02-24T13:00:31.712Z,3.37
2023-02-24T13:03:08.025Z,3.73
2023-02-24T13:05:44.250Z,3.40
2023-02-24T13:08:23.208Z,3.17
2023-02-24T13:11:01.242Z,4.33
2023-02-24T13:13:36.522Z,3.60
2023-02-24T13:16:04.546Z,2.43
2023-02-24T13:18:34.550Z,1.73
2023-02-24T13:21:05.879Z,1.67
2023-02-24T13:23:36.035Z,1.83
2023-02-24T13:26:04.747Z,2.07
2023-02-24T13:28:36.214Z,1.90
2023-02-24T13:31:06.753Z,1.80
2023-02-24T13:33:36.908Z,1.70
2023-02-24T13:36:15.048Z,2.70
2023-02-24T13:38:46.719Z,2.57
2023-02-24T13:41:40.561Z,2.57
2023-02-24T13:44:29.747Z,2.30
2023-02-24T13:47:26.870Z,2.60
2023-02-24T13:50:12.345Z,2.60
2023-02-24T13:52:51.445Z,2.50
2023-02-24T13:55:33.239Z,2.60
2023-02-24T13:58:20.539Z,2.77
2023-02-24T14:01:04.269Z,2.20
2023-02-24T14:03:33.804Z,3.20
2023-02-24T14:06:03.212Z,2.73
2023-02-24T14:08:43.144Z,2.67
2023-02-24T14:11:17.364Z,2.60
2023-02-24T14:13:50.628Z,1.53
2023-02-24T14:16:25.106Z,1.60
2023-02-24T14:18:57.026Z,0.80
2023-02-24T14:21:27.474Z,1.00
2023-02-24T14:24:00.844Z,1.00
2023-02-24T14:26:45.458Z,1.20
2023-02-24T14:29:18.941Z,0.70
2023-02-24T14:31:53.476Z,1.60
2023-02-24T14:34:35.876Z,1.33
2023-02-24T14:37:08.021Z,1.20
2023-02-24T14:39:45.579Z,1.13
2023-02-24T14:42:17.062Z,1.27
2023-02-24T14:44:50.326Z,1.30
2023-02-24T14:47:21.541Z,0.90
2023-02-24T14:49:59.341Z,0.97
2023-02-24T14:52:35.649Z,1.13
2023-02-24T14:55:07.199Z,1.47
2023-02-24T14:57:41.351Z,0.90
2023-02-24T15:00:17.414Z,0.77
2023-02-24T15:02:52.914Z,0.90
2023-02-24T15:05:21.830Z,1.23
2023-02-24T15:07:51.737Z,2.03
2023-02-24T15:10:30.809Z,2.83
2023-02-24T15:13:08.474Z,1.70
2023-02-24T15:15:40.008Z,1.37
2023-02-24T15:18:18.392Z,0.97
2023-02-24T15:20:46.835Z,1.17
2023-02-24T15:23:36.875Z,1.30
2023-02-24T15:26:08.634Z,1.63
2023-02-24T15:28:42.217Z,1.53
2023-02-24T15:31:22.886Z,1.60
2023-02-24T15:33:57.835Z,1.80
2023-02-24T15:36:29.848Z,1.80
2023-02-24T15:39:07.440Z,2.17
2023-02-24T15:41:46.626Z,2.23
2023-02-24T15:44:30.170Z,1.57
2023-02-24T15:46:59.533Z,2.13
2023-02-24T15:49:39.027Z,1.70
2023-02-24T15:52:12.588Z,0.90
2023-02-24T15:54:42.387Z,1.10
2023-02-24T15:57:14.368Z,1.27
2023-02-24T15:59:45.506Z,4.57
2023-02-24T16:02:19.870Z,2.23
2023-02-24T16:04:49.665Z,1.60
2023-02-24T16:07:20.701Z,1.77
2023-02-24T16:09:50.313Z,1.33
2023-02-24T16:12:22.058Z,1.53
2023-02-24T16:15:01.601Z,1.93
2023-02-24T16:17:33.102Z,1.87
2023-02-24T16:20:08.368Z,1.93
2023-02-24T16:22:36.475Z,2.17
2023-02-24T16:25:05.156Z,1.67
2023-02-24T16:27:33.401Z,2.07
2023-02-24T16:30:02.894Z,2.43
2023-02-24T16:32:30.923Z,2.73
2023-02-24T16:35:00.912Z,2.30
2023-02-24T16:37:32.625Z,2.30
2023-02-24T16:40:02.304Z,2.20
2023-02-24T16:42:30.219Z,1.53
2023-02-24T16:44:58.172Z,1.30
2023-02-24T16:47:27.503Z,1.30
2023-02-24T16:49:57.768Z,2.30
2023-02-24T16:52:25.830Z,2.30
2023-02-24T16:54:54.347Z,2.20
2023-02-24T16:57:25.433Z,1.73
2023-02-24T16:59:53.565Z,1.73
2023-02-24T17:02:25.844Z,2.47
2023-02-24T17:04:55.245Z,1.83
2023-02-24T17:07:23.211Z,1.97
2023-02-24T17:09:51.280Z,2.07
2023-02-24T17:12:22.056Z,2.80
2023-02-24T17:14:50.405Z,1.53
2023-02-24T17:17:18.358Z,2.40
2023-02-24T17:19:47.694Z,2.10
2023-02-24T17:22:17.677Z,2.63
2023-02-24T17:24:45.511Z,2.37
2023-02-24T17:27:13.776Z,1.97
2023-02-24T17:29:41.679Z,2.40
2023-02-24T17:32:09.647Z,2.17
2023-02-24T17:34:37.730Z,2.30
2023-02-24T17:37:05.729Z,1.80
2023-02-24T17:39:35.021Z,1.80
2023-02-24T17:42:03.261Z,1.97
2023-02-24T17:44:31.585Z,1.50
2023-02-24T17:46:59.560Z,1.80
2023-02-24T17:49:27.474Z,2.20
2023-02-24T17:51:55.289Z,2.20
2023-02-24T17:54:23.946Z,2.53
2023-02-24T17:56:53.252Z,2.80
2023-02-24T17:59:21.202Z,2.33
2023-02-24T18:01:51.473Z,2.80
2023-02-24T18:04:19.713Z,2.90
2023-02-24T18:06:47.685Z,3.00
2023-02-24T18:09:15.655Z,2.63
2023-02-24T18:11:45.773Z,3.33
2023-02-24T18:14:15.313Z,3.23
2023-02-24T18:16:43.610Z,3.50
2023-02-24T18:19:11.547Z,3.37
2023-02-24T18:21:41.045Z,4.13
2023-02-24T18:24:10.154Z,3.40
2023-02-24T18:26:38.110Z,3.33
2023-02-24T18:29:06.541Z,3.80
2023-02-24T18:31:37.371Z,3.60
2023-02-24T18:34:05.757Z,3.60
2023-02-24T18:36:35.337Z,3.60
2023-02-24T18:39:03.306Z,3.47
2023-02-24T18:41:31.778Z,2.90
2023-02-24T18:43:59.830Z,3.53
2023-02-24T18:46:37.097Z,3.83
2023-02-24T18:49:08.777Z,3.17
2023-02-24T18:51:37.945Z,4.30
2023-02-24T18:54:06.868Z,3.83
2023-02-24T18:56:38.484Z,3.57
2023-02-24T18:59:06.445Z,3.43
2023-02-24T19:01:36.701Z,3.33
2023-02-24T19:04:07.323Z,3.97
2023-02-24T19:06:38.256Z,2.37
2023-02-24T19:09:09.674Z,3.73
2023-02-24T19:11:40.535Z,3.87
2023-02-24T19:14:22.324Z,3.07
2023-02-24T19:16:52.890Z,2.90
2023-02-24T19:19:22.773Z,2.47
2023-02-24T19:21:50.805Z,2.60
2023-02-24T19:24:19.485Z,3.07
2023-02-24T19:26:48.951Z,3.03
2023-02-24T19:29:19.832Z,2.40
2023-02-24T19:31:55.759Z,2.57
2023-02-24T19:34:25.457Z,2.40
2023-02-24T19:36:54.573Z,2.30
2023-02-24T19:39:22.832Z,2.40
2023-02-24T19:41:50.839Z,2.60
2023-02-24T19:44:18.684Z,2.10
2023-02-24T19:46:48.258Z,2.23
2023-02-24T19:49:18.445Z,2.30
2023-02-24T19:51:48.506Z,2.87
2023-02-24T19:54:18.993Z,2.30
2023-02-24T19:56:52.786Z,2.77
2023-02-24T19:59:20.686Z,2.33
2023-02-24T20:01:58.542Z,2.83
2023-02-24T20:04:26.602Z,2.07
2023-02-24T20:06:58.046Z,2.13
2023-02-24T20:09:27.718Z,2.60
2023-02-24T20:11:58.088Z,2.60
2023-02-24T20:14:34.160Z,2.47
2023-02-24T20:17:06.608Z,2.33
2023-02-24T20:19:35.544Z,2.10
2023-02-24T20:22:09.282Z,2.47
2023-02-24T20:24:41.835Z,2.63
2023-02-24T20:27:11.908Z,2.27
2023-02-24T20:29:42.140Z,2.67
2023-02-24T20:32:11.534Z,2.67
2023-02-24T20:34:39.800Z,2.67
2023-02-24T20:37:09.499Z,2.20
2023-02-24T20:39:37.456Z,3.23
2023-02-24T20:42:06.978Z,2.53
2023-02-24T20:44:35.201Z,1.83
2023-02-24T20:47:07.113Z,1.73
2023-02-24T20:49:35.046Z,2.23
2023-02-24T20:52:02.980Z,2.00
2023-02-24T20:54:32.952Z,2.07
2023-02-24T20:57:01.014Z,2.03
2023-02-24T20:59:32.464Z,1.97
2023-02-24T21:02:09.841Z,1.93
2023-02-24T21:07:22.054Z,1.43
2023-02-24T21:09:52.100Z,2.07
2023-02-24T21:12:20.536Z,1.93
2023-02-24T21:14:48.464Z,2.03
2023-02-24T21:17:19.762Z,2.07
2023-02-24T21:19:49.690Z,2.03
2023-02-24T21:22:19.079Z,1.97
2023-02-24T21:24:51.428Z,2.00
2023-02-24T21:27:22.675Z,2.27
2023-02-24T21:29:56.305Z,2.30
2023-02-24T21:32:32.872Z,2.00
2023-02-24T21:35:02.153Z,1.97
2023-02-24T21:37:31.905Z,2.23
2023-02-24T21:40:00.694Z,2.30
2023-02-24T21:42:31.109Z,2.73
2023-02-24T21:45:02.234Z,2.10
2023-02-24T21:47:33.879Z,1.87
2023-02-24T21:50:01.701Z,2.27
2023-02-24T21:52:30.350Z,2.67
2023-02-24T21:54:59.477Z,2.43
2023-02-24T21:57:28.709Z,1.83
2023-02-24T22:00:13.836Z,2.43
2023-02-24T22:02:44.848Z,2.20
2023-02-24T22:05:14.642Z,1.90
2023-02-24T22:07:45.212Z,1.73
2023-02-24T22:10:17.031Z,2.70
2023-02-24T22:12:46.857Z,2.50
2023-02-24T22:15:16.598Z,2.40
2023-02-24T22:17:46.517Z,2.90
2023-02-24T22:20:21.283Z,2.90
2023-02-24T22:22:51.527Z,2.60
2023-02-24T22:25:23.481Z,2.27
2023-02-24T22:27:52.735Z,2.77
2023-02-24T22:30:20.805Z,2.27
2023-02-24T22:32:55.152Z,2.33
2023-02-24T22:35:23.046Z,2.77
2023-02-24T22:37:51.011Z,2.67
2023-02-24T22:40:20.753Z,2.73
2023-02-24T22:42:52.626Z,2.80
2023-02-24T22:45:22.360Z,2.40
2023-02-24T22:47:50.335Z,2.30
2023-02-24T22:50:22.801Z,2.87
2023-02-24T22:52:51.820Z,2.50
2023-02-24T22:55:21.400Z,2.43
2023-02-24T22:57:49.373Z,2.80
2023-02-24T23:00:22.250Z,2.57
2023-02-24T23:02:52.505Z,2.40
2023-02-24T23:05:20.369Z,2.93
2023-02-24T23:07:48.573Z,2.40
2023-02-24T23:10:16.680Z,2.30
2023-02-24T23:12:44.565Z,2.57
2023-02-24T23:15:13.717Z,2.63
2023-02-24T23:17:42.249Z,2.53
2023-02-24T23:20:13.506Z,2.30
2023-02-24T23:22:45.380Z,2.50
2023-02-24T23:25:13.299Z,2.53
2023-02-24T23:27:42.967Z,1.83
2023-02-24T23:30:14.526Z,2.63
2023-02-24T23:32:44.414Z,2.90
2023-02-24T23:35:17.315Z,2.67
2023-02-24T23:37:45.371Z,2.87
2023-02-24T23:40:50.160Z,2.50
2023-02-24T23:43:19.495Z,1.80
2023-02-24T23:45:47.420Z,1.60
2023-02-24T23:48:15.968Z,2.20
2023-02-24T23:50:46.921Z,1.23
2023-02-24T23:53:16.977Z,1.70
2023-02-24T23:55:47.257Z,1.33
2023-02-24T23:58:16.836Z,1.70
